Time;durP1;ratioP1;P1;durP2;ratioP2;P2;SDS_P1;SDS_P2;PMS_P1;PMS_P2;Temp;Humidity;BMP_temperature;BMP_pressure;BME280_temperature;BME280_humidity;BME280_pressure;Samples;Min_cycle;Max_cycle;Signal;HPM_P1;HPM_P2
2021/03/15 00:02:00;;;;;;;25.08;10.93;;;;;;;6.39;69.15;98105.28;10535839;28;20056;-51
2021/03/15 00:07:02;;;;;;;27.75;11.32;;;;;;;6.40;68.84;98112.19;10534380;28;20169;-53
2021/03/15 00:12:04;;;;;;;24.40;10.35;;;;;;;6.41;68.89;98111.19;10534531;28;20051;-53
2021/03/15 00:17:06;;;;;;;24.30;11.48;;;;;;;6.37;69.38;98106.41;10536068;28;20044;-52
2021/03/15 00:22:08;;;;;;;19.40;8.82;;;;;;;6.33;69.20;98105.88;10534595;28;20074;-51
2021/03/15 00:27:10;;;;;;;24.02;11.73;;;;;;;6.37;69.30;98103.78;10534462;28;20051;-54
2021/03/15 00:32:12;;;;;;;20.67;11.07;;;;;;;6.34;68.37;98102.31;10539478;28;20241;-52
2021/03/15 00:37:14;;;;;;;24.95;12.05;;;;;;;6.40;68.95;98101.75;10541703;28;20143;-53
2021/03/15 00:42:17;;;;;;;25.35;10.07;;;;;;;6.34;67.84;98101.47;10539422;28;20043;-53
2021/03/15 00:47:19;;;;;;;22.65;10.93;;;;;;;6.20;68.73;98105.38;10537539;28;20480;-53
2021/03/15 00:52:21;;;;;;;26.25;11.90;;;;;;;6.19;69.06;98099.34;10540678;28;20400;-55
2021/03/15 00:57:22;;;;;;;30.88;13.40;;;;;;;6.19;68.08;98101.13;10538201;28;20040;-53
2021/03/15 01:02:26;;;;;;;29.20;13.32;;;;;;;6.14;68.89;98096.31;10538373;28;20105;-53
2021/03/15 01:07:28;;;;;;;30.08;13.13;;;;;;;6.14;68.49;98095.50;10537691;28;20136;-58
2021/03/15 01:12:30;;;;;;;20.48;8.95;;;;;;;6.18;69.00;98091.63;10538034;28;20079;-53
2021/03/15 01:17:34;;;;;;;21.92;12.10;;;;;;;6.14;68.92;98096.31;10538026;28;20044;-55
2021/03/15 01:22:36;;;;;;;27.27;11.37;;;;;;;6.20;68.65;98092.31;10536841;28;20117;-53
2021/03/15 01:27:38;;;;;;;27.92;11.90;;;;;;;6.13;68.20;98099.91;10537017;28;20542;-59
2021/03/15 01:32:43;;;;;;;30.00;14.00;;;;;;;6.11;69.33;98096.59;10533723;28;20112;-53
2021/03/15 01:37:45;;;;;;;32.65;14.13;;;;;;;6.25;69.24;98097.94;10536949;28;20100;-53
2021/03/15 01:42:47;;;;;;;32.65;13.05;;;;;;;6.19;68.63;98099.34;10537228;28;20101;-52
2021/03/15 01:47:50;;;;;;;32.97;14.32;;;;;;;6.24;68.99;98088.44;10535622;28;20150;-54
2021/03/15 01:52:55;;;;;;;31.30;12.90;;;;;;;6.19;68.76;98094.13;10537723;28;20040;-52
2021/03/15 01:57:56;;;;;;;28.10;13.65;;;;;;;6.09;68.55;98098.53;10536810;28;20048;-53
2021/03/15 02:03:02;;;;;;;25.25;12.95;;;;;;;6.13;69.35;98091.25;10534611;28;20059;-51
2021/03/15 02:08:09;;;;;;;32.67;14.50;;;;;;;6.09;68.51;98092.47;10535348;28;20354;-53
2021/03/15 02:13:55;;;;;;;29.80;15.10;;;;;;;6.07;68.61;98090.03;10537150;28;20349;-51
2021/03/15 02:19:16;;;;;;;25.13;13.00;;;;;;;5.99;69.05;98093.34;10536530;28;20495;-52
2021/03/15 02:24:26;;;;;;;33.20;15.07;;;;;;;5.95;68.07;98086.75;10535165;28;20113;-53
2021/03/15 02:30:09;;;;;;;26.23;11.45;;;;;;;5.94;68.60;98084.28;10536511;28;20509;-52
2021/03/15 02:35:16;;;;;;;25.52;13.85;;;;;;;5.90;69.09;98088.09;10512393;28;20374;-52
2021/03/15 02:40:26;;;;;;;23.13;12.40;;;;;;;5.95;69.09;98086.75;10533897;28;20060;-52
2021/03/15 02:45:29;;;;;;;22.10;8.88;;;;;;;6.01;69.11;98081.94;10534104;28;20048;-55
2021/03/15 02:50:32;;;;;;;36.30;16.23;;;;;;;5.90;68.90;98083.72;10534319;28;20066;-52
2021/03/15 02:55:35;;;;;;;35.08;15.50;;;;;;;5.94;69.26;98077.31;10535246;28;20050;-51
2021/03/15 03:00:39;;;;;;;33.67;17.38;;;;;;;5.90;69.04;98083.72;10534368;28;20069;-59
2021/03/15 03:05:43;;;;;;;;;;;;;;;5.86;68.32;98077.16;10532165;28;20048;-51
2021/03/15 03:10:46;;;;;;;29.98;13.27;;;;;;;5.76;68.39;98064.13;10530159;28;19928;-51
2021/03/15 03:15:49;;;;;;;38.88;17.05;;;;;;;5.72;68.75;98067.13;10533768;28;20043;-53
2021/03/15 03:20:54;;;;;;;23.70;11.32;;;;;;;5.69;68.58;98075.25;10532277;28;20060;-51
2021/03/15 03:25:58;;;;;;;33.78;15.43;;;;;;;5.63;68.99;98071.41;10533182;28;20043;-54
2021/03/15 03:31:03;;;;;;;31.27;14.85;;;;;;;5.66;69.17;98065.91;10532755;28;20052;-53
2021/03/15 03:36:06;;;;;;;30.80;13.98;;;;;;;5.61;68.34;98067.31;10532837;28;20056;-53
2021/03/15 03:41:08;;;;;;;28.57;13.37;;;;;;;5.52;68.68;98069.78;10534350;28;20063;-53
2021/03/15 03:46:11;;;;;;;26.27;11.10;;;;;;;5.49;69.03;98064.84;10536930;28;20048;-58
2021/03/15 03:51:17;;;;;;;26.90;13.97;;;;;;;5.52;68.58;98067.19;10533621;28;20078;-51
2021/03/15 03:56:25;;;;;;;28.83;13.32;;;;;;;5.66;68.59;98065.91;10528377;28;20282;-51
2021/03/15 04:01:31;;;;;;;29.75;11.38;;;;;;;5.57;68.04;98063.31;10533090;28;20070;-52
2021/03/15 04:06:36;;;;;;;31.67;13.70;;;;;;;5.60;68.96;98060.44;10535877;28;20139;-52
2021/03/15 04:11:43;;;;;;;29.85;13.00;;;;;;;5.64;68.52;98061.81;10525969;28;20059;-52
2021/03/15 04:16:46;;;;;;;21.20;9.85;;;;;;;5.59;67.80;98058.81;10554276;28;20464;-51
2021/03/15 04:21:51;;;;;;;28.33;13.77;;;;;;;5.58;68.29;98050.16;10590996;28;20075;-53
2021/03/15 04:26:53;;;;;;;26.35;10.88;;;;;;;5.57;67.71;98058.09;10591971;28;20054;-57
2021/03/15 04:31:55;;;;;;;24.83;12.50;;;;;;;5.61;68.69;98059.50;10592551;28;20062;-53
2021/03/15 04:36:59;;;;;;;21.83;11.32;;;;;;;5.68;68.04;98057.97;10590755;28;20057;-51
2021/03/15 04:42:01;;;;;;;24.10;11.52;;;;;;;5.69;68.13;98057.00;10590223;28;20376;-52
2021/03/15 04:47:03;;;;;;;21.67;10.00;;;;;;;5.86;68.73;98058.88;10590121;28;20389;-52
2021/03/15 04:52:07;;;;;;;18.58;8.50;;;;;;;5.82;67.43;98060.13;10590231;28;20048;-53
2021/03/15 04:57:11;;;;;;;26.52;11.65;;;;;;;5.79;68.06;98055.22;10589637;28;20597;-52
2021/03/15 05:02:20;;;;;;;25.88;11.55;;;;;;;6.01;68.20;98069.72;10507171;28;20059;-52
2021/03/15 05:07:23;;;;;;;19.98;10.25;;;;;;;6.04;67.37;98048.56;10504729;28;20058;-54
2021/03/15 05:12:25;;;;;;;18.17;9.60;;;;;;;6.07;67.23;98060.53;10505213;28;20048;-52
2021/03/15 05:17:28;;;;;;;25.45;11.57;;;;;;;6.00;67.55;98068.06;10503677;28;20168;-51
2021/03/15 05:22:31;;;;;;;21.50;10.95;;;;;;;5.92;67.10;98060.94;10503617;28;20133;-53
2021/03/15 05:27:35;;;;;;;27.40;13.52;;;;;;;5.84;67.35;98055.59;10504440;28;20052;-51
2021/03/15 05:32:39;;;;;;;24.63;11.82;;;;;;;5.80;66.46;98067.28;10504680;28;20053;-53
2021/03/15 05:37:45;;;;;;;28.60;11.88;;;;;;;5.73;67.03;98067.00;10504876;28;20037;-54
2021/03/15 05:43:15;;;;;;;24.77;12.88;;;;;;;5.74;66.90;98062.63;10505966;28;20409;-52
2021/03/15 05:48:59;;;;;;;23.05;12.05;;;;;;;5.64;66.39;98069.66;10477756;28;20063;-54
2021/03/15 05:54:27;;;;;;;17.52;8.50;;;;;;;5.63;66.90;98057.56;10505510;28;20052;-55
2021/03/15 06:00:00;;;;;;;22.67;11.93;;;;;;;5.71;66.84;98070.72;10504096;28;20389;-52
2021/03/15 06:05:18;;;;;;;25.75;13.02;;;;;;;5.77;67.19;98075.38;10505224;28;20048;-53
2021/03/15 06:10:29;;;;;;;26.10;12.60;;;;;;;5.79;66.41;98070.84;10502936;28;20483;-53
2021/03/15 06:15:35;;;;;;;22.15;9.90;;;;;;;5.84;66.16;98073.84;10503001;28;20056;-53
2021/03/15 06:20:38;;;;;;;17.45;9.02;;;;;;;5.77;66.08;98077.97;10502581;28;20052;-52
2021/03/15 06:25:41;;;;;;;19.20;9.30;;;;;;;5.51;66.17;98082.94;10502236;28;20041;-51
2021/03/15 06:30:44;;;;;;;16.75;7.57;;;;;;;5.31;66.31;98076.94;10503408;28;20052;-52
2021/03/15 06:35:47;;;;;;;20.45;11.13;;;;;;;5.18;67.18;98078.97;10504508;28;20048;-53
2021/03/15 06:40:50;;;;;;;21.98;12.57;;;;;;;5.12;67.19;98087.34;10504447;28;20479;-53
2021/03/15 06:45:54;;;;;;;25.85;11.60;;;;;;;5.15;67.71;98097.50;10506922;28;20052;-55
2021/03/15 06:50:56;;;;;;;27.48;10.00;;;;;;;5.00;67.62;98103.09;10503043;28;20083;-57
2021/03/15 06:55:59;;;;;;;26.15;12.77;;;;;;;4.84;67.90;98102.78;10503023;28;20370;-56
2021/03/15 07:01:15;;;;;;;27.00;14.93;;;;;;;4.78;68.08;98103.31;10499976;28;20082;-53
2021/03/15 07:06:19;;;;;;;22.50;9.43;;;;;;;4.76;68.37;98113.84;10500583;28;20071;-53
2021/03/15 07:11:23;;;;;;;27.00;14.98;;;;;;;4.67;68.66;98121.63;10499979;28;20055;-53
2021/03/15 07:16:29;;;;;;;17.65;9.50;;;;;;;4.67;68.63;98121.63;10501162;28;20097;-54
2021/03/15 07:21:34;;;;;;;32.50;15.10;;;;;;;4.57;68.38;98125.03;10498969;28;20382;-54
2021/03/15 07:26:43;;;;;;;26.88;12.68;;;;;;;4.65;69.08;98132.19;10499786;28;20045;-54
2021/03/15 07:31:46;;;;;;;27.05;14.93;;;;;;;4.72;69.12;98122.06;10500407;28;20052;-53
2021/03/15 07:36:53;;;;;;;29.87;14.33;;;;;;;4.70;69.05;98130.00;10498814;28;20405;-56
2021/03/15 07:41:58;;;;;;;33.30;15.95;;;;;;;4.74;69.13;98120.13;10498903;28;20048;-52
2021/03/15 07:47:01;;;;;;;35.05;17.85;;;;;;;4.70;68.34;98129.19;10499468;28;20384;-52
2021/03/15 07:52:04;;;;;;;35.93;17.23;;;;;;;4.64;69.38;98129.72;10500541;28;20040;-53
2021/03/15 07:57:21;;;;;;;29.03;13.33;;;;;;;4.78;69.35;98121.53;10500653;28;20040;-54
2021/03/15 08:02:25;;;;;;;31.38;15.73;;;;;;;4.81;69.07;98126.50;10500211;28;20302;-52
2021/03/15 08:07:27;;;;;;;22.02;11.82;;;;;;;4.89;68.85;98134.44;10499349;28;20060;-53
2021/03/15 08:12:34;;;;;;;34.67;15.40;;;;;;;4.96;69.40;98130.34;10499367;28;20428;-54
2021/03/15 08:17:37;;;;;;;33.97;17.25;;;;;;;4.87;68.87;98131.16;10499808;28;20131;-54
2021/03/15 08:22:42;;;;;;;36.50;15.60;;;;;;;4.90;69.00;98130.91;10499202;28;20403;-55
2021/03/15 08:27:47;;;;;;;34.60;17.73;;;;;;;5.02;69.62;98127.22;10498998;28;20040;-55
2021/03/15 08:32:49;;;;;;;37.42;14.68;;;;;;;5.14;69.25;98127.94;10498786;28;20040;-53
2021/03/15 08:37:56;;;;;;;34.50;15.57;;;;;;;5.07;68.78;98132.84;10503838;28;20059;-56
2021/03/15 08:43:23;;;;;;;32.15;15.95;;;;;;;5.10;69.06;98136.13;10500847;28;20048;-52
2021/03/15 08:48:53;;;;;;;31.77;13.85;;;;;;;5.22;69.20;98145.47;10499747;28;20075;-52
2021/03/15 08:53:55;;;;;;;33.20;16.73;;;;;;;5.12;68.63;98142.88;10504005;28;20117;-52
2021/03/15 08:58:58;;;;;;;20.42;10.40;;;;;;;5.25;69.21;98150.41;10505509;28;20074;-52
2021/03/15 09:04:01;;;;;;;33.47;16.17;;;;;;;5.24;68.49;98146.19;10506139;28;20048;-52
2021/03/15 09:09:04;;;;;;;30.27;17.15;;;;;;;5.13;68.92;98146.28;10505748;28;20082;-53
2021/03/15 09:14:36;;;;;;;31.38;18.02;;;;;;;5.11;68.68;98153.41;10504969;28;20052;-56
2021/03/15 09:19:42;;;;;;;29.08;15.60;;;;;;;5.12;69.04;98155.06;10504779;28;20536;-53
2021/03/15 09:24:51;;;;;;;35.88;17.20;;;;;;;5.13;68.88;98160.13;10505171;28;20465;-52
2021/03/15 09:29:55;;;;;;;34.75;16.35;;;;;;;5.16;68.21;98164.25;10505243;28;20048;-52
2021/03/15 09:34:58;;;;;;;28.38;14.75;;;;;;;5.12;68.87;98165.50;10504930;28;20055;-54
2021/03/15 09:40:01;;;;;;;31.92;17.10;;;;;;;5.18;69.23;98159.75;10504287;28;20062;-53
2021/03/15 09:45:11;;;;;;;29.77;16.42;;;;;;;5.43;68.68;98174.03;10504198;28;20044;-53
2021/03/15 09:50:21;;;;;;;29.85;15.43;;;;;;;5.45;68.54;98166.88;10505473;28;20492;-54
2021/03/15 09:55:29;;;;;;;21.95;13.00;;;;;;;5.48;68.83;98172.69;10509725;28;20036;-58
2021/03/15 10:00:33;;;;;;;31.98;15.75;;;;;;;5.43;68.56;98174.03;10505459;28;20143;-53
2021/03/15 10:05:57;;;;;;;25.70;13.20;;;;;;;5.52;69.01;98175.81;10502321;28;20580;-60
2021/03/15 10:11:17;;;;;;;28.70;15.85;;;;;;;5.55;68.53;98175.56;10506381;28;20048;-54
2021/03/15 10:16:52;;;;;;;28.65;15.95;;;;;;;5.66;68.49;98174.59;10503667;28;20139;-52
2021/03/15 10:22:10;;;;;;;25.70;12.95;;;;;;;5.70;68.24;98181.19;10502528;28;20057;-52
2021/03/15 10:27:17;;;;;;;23.80;13.15;;;;;;;5.81;68.61;98173.22;10501872;28;20087;-52
2021/03/15 10:32:25;;;;;;;22.80;11.10;;;;;;;6.02;68.09;98169.66;10504607;28;20114;-53
2021/03/15 10:37:31;;;;;;;26.55;14.00;;;;;;;6.02;68.23;98177.50;10503433;28;20087;-53
2021/03/15 10:42:43;;;;;;;25.50;13.32;;;;;;;6.02;67.48;98180.09;10502696;28;20048;-54
2021/03/15 10:47:46;;;;;;;26.00;13.52;;;;;;;6.06;67.07;98186.69;10505928;28;20052;-58
2021/03/15 10:52:50;;;;;;;25.60;12.73;;;;;;;6.15;66.80;98188.44;10502048;28;20397;-53
2021/03/15 10:58:06;;;;;;;27.95;14.20;;;;;;;6.32;66.04;98194.75;10500620;28;20052;-55
2021/03/15 11:03:21;;;;;;;28.45;14.20;;;;;;;6.38;66.49;98189.78;10501076;28;20101;-53
2021/03/15 11:08:24;;;;;;;25.85;13.52;;;;;;;6.38;65.67;98205.44;10499650;28;20037;-54
2021/03/15 11:13:27;;;;;;;31.58;14.95;;;;;;;6.41;65.54;98193.91;10500922;28;20450;-53
2021/03/15 11:18:43;;;;;;;28.70;13.07;;;;;;;6.45;66.01;98193.47;10499266;28;20056;-52
2021/03/15 11:23:45;;;;;;;25.27;13.90;;;;;;;6.61;66.03;98186.84;10499184;28;20088;-52
2021/03/15 11:29:10;;;;;;;29.42;13.60;;;;;;;6.79;65.78;98182.50;10480029;28;20068;-53
2021/03/15 11:34:20;;;;;;;29.10;15.25;;;;;;;6.79;64.94;98189.53;10500919;28;20052;-53
2021/03/15 11:39:25;;;;;;;25.95;14.45;;;;;;;6.87;65.06;98187.03;10501211;28;20052;-53
2021/03/15 11:44:48;;;;;;;29.42;14.25;;;;;;;6.98;65.09;98193.84;10499677;28;20132;-53
2021/03/15 11:49:51;;;;;;;28.02;13.20;;;;;;;6.84;64.05;98190.75;10498783;28;20477;-53
2021/03/15 11:54:59;;;;;;;31.60;14.43;;;;;;;6.66;64.99;98206.34;10498422;28;20056;-52
2021/03/15 12:00:09;;;;;;;28.83;13.98;;;;;;;6.54;64.33;98198.81;10499929;28;20048;-52
2021/03/15 12:05:21;;;;;;;29.17;13.65;;;;;;;6.57;64.79;98208.97;10499643;28;20457;-52
2021/03/15 12:10:24;;;;;;;29.05;13.13;;;;;;;6.58;64.74;98215.84;10498539;28;20063;-53
2021/03/15 12:15:26;;;;;;;32.33;15.15;;;;;;;6.49;64.31;98216.69;10500688;28;20040;-52
2021/03/15 12:20:29;;;;;;;28.30;15.63;;;;;;;6.55;64.68;98216.94;10499522;28;20106;-52
2021/03/15 12:25:37;;;;;;;31.70;13.77;;;;;;;6.58;64.25;98226.28;10498485;28;20484;-53
2021/03/15 12:31:05;;;;;;;25.73;13.60;;;;;;;6.60;64.47;98229.59;10504942;28;20052;-51
2021/03/15 12:36:11;;;;;;;29.45;15.07;;;;;;;6.48;64.51;98228.91;10505846;28;20041;-56
2021/03/15 12:41:15;;;;;;;30.70;14.50;;;;;;;6.42;64.51;98232.09;10505367;28;20392;-52
2021/03/15 12:46:18;;;;;;;28.40;12.73;;;;;;;6.36;64.21;98235.25;10506296;28;20051;-52
2021/03/15 12:51:23;;;;;;;30.52;14.48;;;;;;;6.32;64.51;98234.72;10488590;28;20048;-53
2021/03/15 12:56:25;;;;;;;30.30;14.60;;;;;;;6.39;64.30;98230.56;10508499;28;20144;-57
2021/03/15 13:01:27;;;;;;;25.73;12.30;;;;;;;6.38;64.38;98249.81;10508827;28;20048;-60
2021/03/15 13:06:31;;;;;;;33.58;14.98;;;;;;;6.36;64.23;98256.97;10505564;28;20060;-51
2021/03/15 13:11:59;;;;;;;29.90;14.52;;;;;;;6.42;64.09;98266.84;10504260;28;20056;-53
2021/03/15 13:17:21;;;;;;;29.02;13.70;;;;;;;6.42;64.35;98266.84;10508345;28;20139;-54
2021/03/15 13:22:23;;;;;;;32.80;15.15;;;;;;;6.41;64.42;98265.22;10504216;28;20052;-53
2021/03/15 13:27:27;;;;;;;31.67;15.03;;;;;;;6.41;64.75;98275.66;10503959;28;20530;-53
2021/03/15 13:32:38;;;;;;;32.17;15.38;;;;;;;6.42;64.63;98279.91;10504383;28;20118;-52
2021/03/15 13:37:42;;;;;;;26.52;14.45;;;;;;;6.47;64.15;98282.09;10502200;28;20556;-53
2021/03/15 13:42:59;;;;;;;33.20;16.20;;;;;;;6.50;64.04;98278.41;10503897;28;20052;-54
2021/03/15 13:48:09;;;;;;;26.40;14.02;;;;;;;6.53;64.36;98280.72;10503111;28;20484;-54
2021/03/15 13:53:13;;;;;;;26.90;13.25;;;;;;;6.58;64.38;98287.16;10502414;28;20056;-52
2021/03/15 13:58:26;;;;;;;27.60;13.05;;;;;;;6.63;63.69;98295.41;10501230;28;20055;-52
2021/03/15 14:03:29;;;;;;;28.60;12.88;;;;;;;6.50;63.90;98297.50;10502170;28;20076;-54
2021/03/15 14:08:36;;;;;;;27.27;13.20;;;;;;;6.55;63.73;98307.50;10503689;28;20127;-54
2021/03/15 14:13:38;;;;;;;24.73;12.03;;;;;;;6.63;64.08;98315.47;10505298;28;20044;-52
2021/03/15 14:18:39;;;;;;;30.75;13.10;;;;;;;6.64;63.88;98319.72;10502176;28;20048;-52
2021/03/15 14:24:09;;;;;;;22.77;12.30;;;;;;;6.63;63.73;98320.69;10494982;28;20373;-51
2021/03/15 14:29:11;;;;;;;24.45;12.57;;;;;;;6.65;63.78;98329.19;10501553;28;20102;-53
2021/03/15 14:34:32;;;;;;;25.45;11.48;;;;;;;6.58;63.13;98328.94;10502633;28;20060;-52
2021/03/15 14:39:55;;;;;;;32.35;14.55;;;;;;;6.60;63.59;98323.56;10501536;28;20052;-53
2021/03/15 14:44:57;;;;;;;27.52;11.93;;;;;;;6.59;63.16;98332.34;10501670;28;20580;-59
2021/03/15 14:50:09;;;;;;;25.05;11.63;;;;;;;6.55;63.02;98339.66;10501285;28;20080;-61
2021/03/15 14:55:46;;;;;;;22.75;10.85;;;;;;;6.48;63.44;98343.78;10453538;28;20140;-53
2021/03/15 15:00:49;;;;;;;20.92;10.25;;;;;;;6.48;63.09;98348.19;10500445;28;20152;-54
2021/03/15 15:05:53;;;;;;;22.77;11.07;;;;;;;6.49;62.88;98355.03;10501126;28;20048;-53
2021/03/15 15:10:56;;;;;;;25.60;10.93;;;;;;;6.46;62.82;98361.34;10500497;28;20493;-52
2021/03/15 15:16:00;;;;;;;17.40;8.13;;;;;;;6.51;63.10;98363.56;10501548;28;20141;-52
2021/03/15 15:21:02;;;;;;;22.30;11.13;;;;;;;6.48;62.56;98369.88;10499282;28;20071;-53
2021/03/15 15:26:12;;;;;;;27.77;11.27;;;;;;;6.45;62.61;98381.44;10498239;28;20522;-54
2021/03/15 15:31:13;;;;;;;19.63;9.82;;;;;;;6.40;62.58;98388.00;10496166;28;20049;-51
2021/03/15 15:36:15;;;;;;;22.02;10.80;;;;;;;6.37;62.52;98404.78;10515962;28;20063;-53
2021/03/15 15:41:19;;;;;;;24.58;12.95;;;;;;;6.44;62.63;98411.13;10506140;28;20135;-51
2021/03/15 15:46:22;;;;;;;19.65;11.02;;;;;;;6.65;62.58;98417.97;10497624;28;20048;-51
2021/03/15 15:51:24;;;;;;;19.70;9.90;;;;;;;6.56;62.54;98424.00;10499073;28;20521;-53
2021/03/15 15:56:34;;;;;;;25.10;10.23;;;;;;;6.50;62.44;98419.38;10504193;28;20036;-52
2021/03/15 16:01:37;;;;;;;21.13;9.57;;;;;;;6.46;62.21;98434.47;10502331;28;20113;-51
2021/03/15 16:06:39;;;;;;;;;;;;;;;6.44;62.53;98445.03;10507824;28;20052;-54
2021/03/15 16:11:41;;;;;;;22.60;11.60;;;;;;;6.50;61.83;98445.47;10503416;28;19974;-52
2021/03/15 16:16:43;;;;;;;23.48;12.20;;;;;;;6.43;61.61;98453.84;10523629;28;20109;-52
2021/03/15 16:21:45;;;;;;;22.27;11.43;;;;;;;6.39;61.83;98460.28;10541648;28;20056;-51
2021/03/15 16:26:47;;;;;;;18.00;9.50;;;;;;;6.29;62.25;98463.84;10544693;28;20184;-51
2021/03/15 16:31:49;;;;;;;20.13;9.50;;;;;;;6.33;61.94;98476.47;10548551;28;20058;-52
2021/03/15 16:36:50;;;;;;;24.55;12.10;;;;;;;6.27;61.62;98477.00;10547608;28;20048;-51
2021/03/15 16:41:53;;;;;;;25.52;12.25;;;;;;;6.27;61.81;98477.00;10541179;28;20055;-52
2021/03/15 16:46:55;;;;;;;28.25;12.10;;;;;;;6.27;61.62;98484.84;10508221;28;20040;-52
2021/03/15 16:51:56;;;;;;;19.30;9.57;;;;;;;6.18;61.97;98488.25;10505901;28;20048;-53
2021/03/15 16:56:59;;;;;;;23.60;10.63;;;;;;;6.11;61.80;98497.56;10506463;28;20052;-53
2021/03/15 17:02:01;;;;;;;23.58;10.15;;;;;;;6.12;61.78;98499.22;10505816;28;20044;-52
2021/03/15 17:07:02;;;;;;;24.88;12.25;;;;;;;6.12;61.61;98504.44;10504173;28;20074;-51
2021/03/15 17:12:06;;;;;;;20.13;10.02;;;;;;;6.09;61.92;98515.94;10505411;28;20051;-52
2021/03/15 17:17:08;;;;;;;19.75;10.85;;;;;;;6.08;62.05;98523.91;10505458;28;20059;-52
2021/03/15 17:22:09;;;;;;;21.48;11.23;;;;;;;6.02;61.94;98524.44;10504227;28;20114;-52
2021/03/15 17:27:12;;;;;;;19.65;10.98;;;;;;;6.03;61.57;98533.91;10504643;28;20052;-52
2021/03/15 17:32:13;;;;;;;21.05;11.05;;;;;;;6.03;61.54;98541.75;10504766;28;20048;-53
2021/03/15 17:37:17;;;;;;;22.92;10.65;;;;;;;6.08;61.91;98544.78;10504209;28;20385;-53
2021/03/15 17:42:19;;;;;;;;;;;;;;;6.16;61.51;98552.81;10507178;28;20094;-52
2021/03/15 17:47:21;;;;;;;21.17;10.95;;;;;;;6.23;61.69;98551.31;10505898;28;20366;-52
2021/03/15 17:52:23;;;;;;;21.58;10.10;;;;;;;6.19;61.27;98561.19;10504179;28;20048;-52
2021/03/15 17:57:25;;;;;;;27.02;11.88;;;;;;;6.16;61.36;98569.28;10503939;28;20048;-54
2021/03/15 18:02:27;;;;;;;24.25;12.15;;;;;;;6.25;61.08;98570.28;10502838;28;20055;-53
2021/03/15 18:07:29;;;;;;;24.38;11.68;;;;;;;6.31;60.88;98577.59;10518078;28;20048;-53
2021/03/15 18:12:34;;;;;;;21.05;10.90;;;;;;;6.37;60.79;98581.44;10544598;28;20048;-53
2021/03/15 18:17:36;;;;;;;21.40;11.35;;;;;;;6.37;61.05;98582.28;10545585;28;20040;-53
2021/03/15 18:22:38;;;;;;;22.73;10.98;;;;;;;6.48;60.61;98598.81;10544363;28;20456;-51
2021/03/15 18:27:41;;;;;;;24.98;11.77;;;;;;;6.53;60.43;98600.06;10544056;28;20046;-54
2021/03/15 18:32:43;;;;;;;24.80;11.80;;;;;;;6.48;60.38;98586.56;10548392;28;20056;-51
2021/03/15 18:37:45;;;;;;;27.05;10.88;;;;;;;6.44;60.67;98593.84;10544189;28;20058;-51
2021/03/15 18:42:47;;;;;;;25.15;12.30;;;;;;;6.50;60.90;98599.50;10543985;28;20052;-51
2021/03/15 18:47:49;;;;;;;20.45;11.32;;;;;;;6.58;60.30;98599.66;10542926;28;20044;-53
2021/03/15 18:52:50;;;;;;;25.80;10.75;;;;;;;6.57;60.01;98606.66;10543088;28;20052;-52
2021/03/15 18:57:53;;;;;;;23.40;10.77;;;;;;;6.58;60.44;98612.72;10543632;28;20048;-52
2021/03/15 19:02:55;;;;;;;19.45;10.82;;;;;;;6.61;60.49;98615.06;10542698;28;20426;-52
2021/03/15 19:07:56;;;;;;;25.65;11.55;;;;;;;6.64;60.02;98623.44;10541463;28;20048;-51
2021/03/15 19:12:59;;;;;;;22.85;10.95;;;;;;;6.52;59.94;98627.13;10540878;28;20127;-53
2021/03/15 19:18:01;;;;;;;26.60;12.13;;;;;;;6.55;60.34;98636.47;10540626;28;20052;-52
2021/03/15 19:23:02;;;;;;;26.10;11.75;;;;;;;6.52;60.34;98637.56;10542279;28;20542;-59
2021/03/15 19:28:05;;;;;;;25.40;11.77;;;;;;;6.47;59.74;98638.94;10545329;28;20040;-54
2021/03/15 19:33:07;;;;;;;23.65;12.15;;;;;;;6.47;59.69;98649.38;10541614;28;20070;-51
2021/03/15 19:38:09;;;;;;;21.17;11.93;;;;;;;6.47;59.70;98654.59;10539365;28;20044;-53
2021/03/15 19:43:12;;;;;;;22.85;11.77;;;;;;;6.44;60.13;98659.13;10539151;28;20051;-51
2021/03/15 19:48:13;;;;;;;23.85;13.13;;;;;;;6.40;60.07;98659.50;10539307;28;20184;-51
2021/03/15 19:53:16;;;;;;;23.88;10.85;;;;;;;6.38;60.25;98664.03;10535579;28;20393;-53
2021/03/15 19:58:19;;;;;;;28.30;12.20;;;;;;;6.24;59.82;98665.19;10518522;28;20151;-57
2021/03/15 20:03:20;;;;;;;27.02;12.85;;;;;;;6.24;59.89;98673.00;10506213;28;20642;-52
2021/03/15 20:08:22;;;;;;;25.20;12.95;;;;;;;6.35;60.09;98675.56;10500052;28;20049;-53
2021/03/15 20:13:25;;;;;;;27.10;12.27;;;;;;;6.35;59.34;98683.38;10499039;28;20044;-52
2021/03/15 20:18:27;;;;;;;21.70;10.90;;;;;;;6.33;59.34;98687.91;10498589;28;20044;-53
2021/03/15 20:23:29;;;;;;;27.25;12.35;;;;;;;6.26;59.45;98696.38;10499106;28;20060;-52
2021/03/15 20:28:32;;;;;;;23.70;11.15;;;;;;;6.24;59.40;98701.72;10514308;28;20164;-52
2021/03/15 20:33:34;;;;;;;26.05;12.25;;;;;;;6.16;59.91;98696.31;10546498;28;20194;-54
2021/03/15 20:38:39;;;;;;;27.98;13.10;;;;;;;6.09;60.04;98702.97;10543378;28;20059;-53
2021/03/15 20:43:42;;;;;;;28.13;11.93;;;;;;;6.12;59.56;98703.56;10541511;28;20048;-53
2021/03/15 20:48:44;;;;;;;34.42;13.77;;;;;;;6.16;59.40;98712.81;10542822;28;20059;-53
2021/03/15 20:53:45;;;;;;;29.55;12.82;;;;;;;6.19;59.40;98712.56;10547196;28;20105;-54
2021/03/15 20:58:48;;;;;;;28.20;12.52;;;;;;;6.26;59.34;98719.88;10545512;28;20048;-53
2021/03/15 21:03:50;;;;;;;30.23;13.30;;;;;;;6.24;59.72;98722.59;10543001;28;20054;-52
2021/03/15 21:08:51;;;;;;;30.42;13.52;;;;;;;6.22;59.34;98724.53;10545179;28;20044;-52
2021/03/15 21:13:54;;;;;;;31.42;12.77;;;;;;;6.32;59.15;98717.56;10548333;28;20388;-55
2021/03/15 21:18:56;;;;;;;26.10;12.07;;;;;;;6.37;59.13;98720.63;10551550;28;20472;-53
2021/03/15 21:23:58;;;;;;;33.08;14.18;;;;;;;6.38;59.37;98717.06;10544829;28;20570;-52
2021/03/15 21:29:01;;;;;;;30.20;13.43;;;;;;;6.47;58.96;98725.09;10543897;28;20083;-51
2021/03/15 21:34:03;;;;;;;34.38;14.23;;;;;;;6.56;58.81;98724.28;10545241;28;20492;-52
2021/03/15 21:39:05;;;;;;;30.85;14.07;;;;;;;6.68;58.74;98731.09;10545600;28;20055;-54
2021/03/15 21:44:08;;;;;;;26.27;12.32;;;;;;;6.56;58.93;98726.91;10546145;28;20230;-53
2021/03/15 21:49:10;;;;;;;29.23;13.57;;;;;;;6.56;58.75;98727.75;10544031;28;20036;-52
2021/03/15 21:54:12;;;;;;;30.75;13.98;;;;;;;6.64;58.80;98724.47;10545610;28;20055;-55
2021/03/15 21:59:14;;;;;;;29.50;13.82;;;;;;;6.60;58.76;98733.53;10544331;28;20035;-51
2021/03/15 22:04:16;;;;;;;30.60;13.43;;;;;;;6.62;58.63;98731.59;10542555;28;20135;-52
2021/03/15 22:09:18;;;;;;;32.40;13.45;;;;;;;6.67;58.67;98739.88;10544725;28;20104;-53
2021/03/15 22:14:20;;;;;;;33.03;13.93;;;;;;;6.67;58.11;98734.66;10545619;28;20056;-53
2021/03/15 22:19:23;;;;;;;31.20;13.57;;;;;;;6.69;58.21;98743.22;10544460;28;20044;-52
2021/03/15 22:24:25;;;;;;;33.83;14.35;;;;;;;6.62;58.08;98747.28;10570326;28;20108;-52
2021/03/15 22:29:27;;;;;;;34.17;14.55;;;;;;;6.65;58.50;98752.25;10586115;28;20111;-52
2021/03/15 22:34:29;;;;;;;35.33;14.27;;;;;;;6.66;58.45;98753.91;10586783;28;20469;-53
2021/03/15 22:39:31;;;;;;;32.17;15.82;;;;;;;6.59;58.54;98752.75;10586239;28;20044;-53
2021/03/15 22:44:33;;;;;;;32.05;13.90;;;;;;;6.58;58.63;98751.09;10585562;28;20532;-52
2021/03/15 22:49:35;;;;;;;33.95;13.32;;;;;;;6.62;57.89;98755.97;10586613;28;20089;-57
2021/03/15 22:54:36;;;;;;;29.38;13.00;;;;;;;6.67;58.49;98750.34;10593773;28;20047;-61
2021/03/15 22:59:39;;;;;;;30.63;14.10;;;;;;;6.81;57.88;98751.81;10590922;28;20039;-53
2021/03/15 23:04:40;;;;;;;30.65;14.32;;;;;;;6.84;57.57;98747.13;10587764;28;20442;-54
2021/03/15 23:09:44;;;;;;;31.00;13.63;;;;;;;6.83;57.88;98745.47;10587322;28;20159;-59
2021/03/15 23:14:46;;;;;;;31.83;14.13;;;;;;;6.97;56.91;98740.88;10585387;28;20397;-54
2021/03/15 23:19:48;;;;;;;27.98;12.07;;;;;;;7.08;56.80;98738.13;10587891;28;20105;-59
2021/03/15 23:24:52;;;;;;;29.15;13.15;;;;;;;7.11;56.41;98743.09;10585109;28;20056;-53
2021/03/15 23:29:55;;;;;;;28.27;11.65;;;;;;;7.06;56.61;98740.91;10584094;28;20058;-53